Indialantic, Florida
Current Conditions -  °F | °C
As of 12:53 PM on Saturday 25 Oct 2014 (Local Time) from KMLB Reporting Station
Clear Clear  
Wind Chill: 27°   Ceiling: Unl
Heat Index: 27°   Visibility: 10mi
Dew Point: 17°   Wind: 15mph
Humidity: 54%   Direction: 10°N
Pressure: 29.96"   Gusts: NA
Location:  28.09°N, 80.57°W
Report Text: KMLB 251653Z 01013KT 10SM CLR 27/17 A2996 RMK AO2 SLP144 T02670167
Loading
Personal Weather Stations






























Interactive Weather Map
Tropical Storm Tracking
New forecast layout! Learn more

10-Day Weather Forecast

Advertisements
Track Severe Weather on mobile